createdAt,value
2023-01-02T00:00:52.925Z,99.8
2023-01-02T00:02:52.708Z,99.8
2023-01-02T00:04:53.384Z,99.8
2023-01-02T00:06:53.411Z,99.5
2023-01-02T00:08:52.705Z,99.5
2023-01-02T00:10:53.180Z,99.5
2023-01-02T00:12:52.494Z,99.5
2023-01-02T00:14:52.500Z,98.8
2023-01-02T00:16:52.559Z,98.8
2023-01-02T00:18:52.443Z,99.3
2023-01-02T00:20:52.978Z,99.3
2023-01-02T00:22:52.353Z,99.3
2023-01-02T00:24:52.383Z,99.3
2023-01-02T00:26:52.344Z,99
2023-01-02T00:28:52.258Z,99
2023-01-02T00:30:52.381Z,99
2023-01-02T00:32:52.361Z,99
2023-01-02T00:34:52.297Z,99
2023-01-02T00:36:52.228Z,99.1
2023-01-02T00:38:54.727Z,98.5
2023-01-02T00:40:52.187Z,97.9
2023-01-02T00:42:52.218Z,97.9
2023-01-02T00:44:52.276Z,97.9
2023-01-02T00:46:52.272Z,98.2
2023-01-02T00:48:52.270Z,98.2
2023-01-02T00:50:52.256Z,98.2
2023-01-02T00:52:52.204Z,98.2
2023-01-02T00:54:52.174Z,98.2
2023-01-02T00:56:52.156Z,97.7
2023-01-02T00:58:52.137Z,97.7
2023-01-02T01:00:52.442Z,97.7
2023-01-02T01:02:54.853Z,97.7
2023-01-02T01:04:52.110Z,97.7
2023-01-02T01:06:52.068Z,97.6
2023-01-02T01:08:52.033Z,97.6
2023-01-02T01:10:51.996Z,97.6
2023-01-02T01:12:52.214Z,97.6
2023-01-02T01:14:52.045Z,97.4
2023-01-02T01:16:51.865Z,97.2
2023-01-02T01:18:55.157Z,97.2
2023-01-02T01:20:51.853Z,97.2
2023-01-02T01:22:51.905Z,97.2
2023-01-02T01:24:51.886Z,96.8
2023-01-02T01:26:51.764Z,96
2023-01-02T01:28:52.966Z,96
2023-01-02T01:30:51.745Z,96
2023-01-02T01:32:51.767Z,96.5
2023-01-02T01:34:51.632Z,96.5
2023-01-02T01:36:51.693Z,96
2023-01-02T01:38:51.751Z,96
2023-01-02T01:40:51.556Z,96
2023-01-02T01:42:54.954Z,96
2023-01-02T01:44:52.815Z,95.4
2023-01-02T01:46:51.433Z,95.4
2023-01-02T01:48:57.568Z,95.4
2023-01-02T01:50:51.421Z,96
2023-01-02T01:52:56.698Z,96
2023-01-02T01:54:56.186Z,95.4
2023-01-02T01:56:56.701Z,94.7
2023-01-02T01:58:51.427Z,94.7
2023-01-02T02:00:51.771Z,94.7
2023-01-02T02:02:56.215Z,94.7
2023-01-02T02:04:51.645Z,95.5
2023-01-02T02:06:51.740Z,95.5
2023-01-02T02:08:58.291Z,95.5
2023-01-02T02:10:52.563Z,95.5
2023-01-02T02:12:50.950Z,96.1
2023-01-02T02:14:50.933Z,96.1
2023-01-02T02:16:56.925Z,95.7
2023-01-02T02:19:10.885Z,95.4
2023-01-02T02:21:00.115Z,96
2023-01-02T02:23:22.919Z,95.3
2023-01-02T02:25:12.962Z,95.3
2023-01-02T02:27:08.555Z,95.3
2023-01-02T02:29:20.386Z,94.2
2023-01-02T02:30:55.059Z,94.2
2023-01-02T02:33:03.127Z,94.2
2023-01-02T02:34:59.060Z,94.2
2023-01-02T02:36:57.615Z,94.4
2023-01-02T02:39:01.113Z,94.4
2023-01-02T02:41:00.371Z,95
2023-01-02T02:42:58.231Z,95
2023-01-02T02:44:58.212Z,93.4
2023-01-02T02:46:55.921Z,92.8
2023-01-02T02:48:58.357Z,92.8
2023-01-02T02:50:59.305Z,92.8
2023-01-02T02:52:57.352Z,93.9
2023-01-02T02:54:56.306Z,93.9
2023-01-02T02:56:52.910Z,93.9
2023-01-02T02:58:51.260Z,93.9
2023-01-02T03:00:50.149Z,93.9
2023-01-02T03:02:50.511Z,93.3
2023-01-02T03:04:55.235Z,93.3
2023-01-02T03:07:03.800Z,93.3
2023-01-02T03:09:02.535Z,93.3
2023-01-02T03:10:56.034Z,93.8
2023-01-02T03:13:04.304Z,93.8
2023-01-02T03:14:56.983Z,93.8
2023-01-02T03:16:56.056Z,94.4
2023-01-02T03:18:55.952Z,94.4
2023-01-02T03:20:58.038Z,95.1
2023-01-02T03:22:54.781Z,95.7
2023-01-02T03:24:53.656Z,95.7
2023-01-02T03:26:54.547Z,95.5
2023-01-02T03:28:53.720Z,95.1
2023-01-02T03:30:52.190Z,95.1
2023-01-02T03:32:55.633Z,95.1
2023-01-02T03:34:50.374Z,95.1
2023-01-02T03:36:54.845Z,95.7
2023-01-02T03:38:58.268Z,95.7
2023-01-02T03:40:54.413Z,95.7
2023-01-02T03:42:54.333Z,95.7
2023-01-02T03:44:56.085Z,95.7
2023-01-02T03:46:53.460Z,95.9
2023-01-02T03:48:55.013Z,95.9
2023-01-02T03:50:52.940Z,96.3
2023-01-02T03:52:48.768Z,96.3
2023-01-02T03:54:48.955Z,97
2023-01-02T03:56:57.073Z,96.4
2023-01-02T03:58:53.947Z,96.4
2023-01-02T04:00:53.582Z,96.4
2023-01-02T04:02:54.454Z,96.4
2023-01-02T04:04:53.513Z,95.8
2023-01-02T04:06:57.523Z,96.1
2023-01-02T04:08:54.826Z,96.1
2023-01-02T04:10:56.322Z,96.1
2023-01-02T04:12:52.592Z,96.1
2023-01-02T04:14:51.874Z,96.1
2023-01-02T04:16:50.188Z,96.1
2023-01-02T04:18:51.242Z,96.1
2023-01-02T04:20:52.899Z,95.3
2023-01-02T04:22:53.637Z,95.3
2023-01-02T04:24:58.853Z,95.3
2023-01-02T04:26:52.032Z,95.3
2023-01-02T04:28:48.397Z,95.3
2023-01-02T04:30:54.173Z,94.3
2023-01-02T04:32:48.141Z,94.3
2023-01-02T04:34:50.464Z,94.3
2023-01-02T04:36:47.360Z,93.5
2023-01-02T04:38:47.093Z,93.5
2023-01-02T04:40:47.376Z,92.9
2023-01-02T04:42:46.907Z,93.1
2023-01-02T04:44:47.150Z,92.1
2023-01-02T04:46:46.815Z,92.1
2023-01-02T04:48:46.809Z,92.2
2023-01-02T04:50:46.660Z,92.2
2023-01-02T04:52:46.513Z,93.4
2023-01-02T04:54:46.459Z,92.6
2023-01-02T04:56:46.316Z,92.6
2023-01-02T04:58:46.930Z,92.6
2023-01-02T05:00:46.257Z,92.6
2023-01-02T05:02:46.195Z,92.6
2023-01-02T05:04:45.957Z,92.6
2023-01-02T05:06:45.958Z,92.8
2023-01-02T05:08:45.840Z,92.8
2023-01-02T05:10:45.779Z,92.8
2023-01-02T05:12:45.733Z,92.8
2023-01-02T05:14:45.477Z,92.8
2023-01-02T05:16:45.413Z,93.1
2023-01-02T05:18:45.381Z,93.1
2023-01-02T05:20:45.322Z,93.1
2023-01-02T05:22:45.315Z,93.1
2023-01-02T05:24:45.200Z,93.1
2023-01-02T05:26:44.938Z,93.4
2023-01-02T05:28:45.123Z,93.4
2023-01-02T05:30:44.836Z,92.5
2023-01-02T05:32:44.834Z,93
2023-01-02T05:34:44.752Z,93
2023-01-02T05:36:44.654Z,93.1
2023-01-02T05:38:44.530Z,92.4
2023-01-02T05:40:44.401Z,91.8
2023-01-02T05:42:44.585Z,92.3
2023-01-02T05:44:44.214Z,92.3
2023-01-02T05:46:44.307Z,91.4
2023-01-02T05:48:44.837Z,92.1
2023-01-02T05:50:43.918Z,91.5
2023-01-02T05:52:46.021Z,91.5
2023-01-02T05:54:43.890Z,91.5
2023-01-02T05:56:43.724Z,91.3
2023-01-02T05:58:45.628Z,91.3
2023-01-02T06:00:43.505Z,91.3
2023-01-02T06:02:47.969Z,91.3
2023-01-02T06:04:43.416Z,91.3
2023-01-02T06:06:43.335Z,91.8
2023-01-02T06:07:40.763Z,91.8
2023-01-02T06:07:43.295Z,91.8
2023-01-02T06:08:43.572Z,90.8
2023-01-02T06:10:49.385Z,91.3
2023-01-02T06:12:42.943Z,91.3
2023-01-02T06:14:42.892Z,90.5
2023-01-02T06:16:42.838Z,91.1
2023-01-02T06:18:42.800Z,91.1
2023-01-02T06:20:42.747Z,91.1
2023-01-02T06:22:42.509Z,91.1
2023-01-02T06:24:42.496Z,91.1
2023-01-02T06:26:42.663Z,90.2
2023-01-02T06:28:44.750Z,90.8
2023-01-02T06:30:42.270Z,90.8
2023-01-02T06:32:44.970Z,90.8
2023-01-02T06:34:42.092Z,90.8
2023-01-02T06:35:23.862Z,82.5
2023-01-02T06:35:57.061Z,90.2
2023-01-02T06:36:44.161Z,90.2
2023-01-02T06:38:42.299Z,90.2
2023-01-02T06:40:51.907Z,90.2
2023-01-02T06:42:43.175Z,90.2
2023-01-02T06:44:42.116Z,90.2
2023-01-02T06:46:41.650Z,90.4
2023-01-02T06:48:42.289Z,90.4
2023-01-02T06:50:41.856Z,89.3
2023-01-02T06:52:41.589Z,89.9
2023-01-02T06:54:41.439Z,89.9
2023-01-02T06:56:41.459Z,90
2023-01-02T06:58:41.306Z,90
2023-01-02T07:00:41.347Z,90
2023-01-02T07:02:41.317Z,89.3
2023-01-02T07:04:41.179Z,88.2
2023-01-02T07:06:41.728Z,89.1
2023-01-02T07:08:41.755Z,89.1
2023-01-02T07:10:40.964Z,89.1
2023-01-02T07:12:40.890Z,88.5
2023-01-02T07:14:40.931Z,88.5
2023-01-02T07:16:40.832Z,88.2
2023-01-02T07:18:40.791Z,87.6
2023-01-02T07:20:40.638Z,88.1
2023-01-02T07:22:40.680Z,88.1
2023-01-02T07:24:40.443Z,88.1
2023-01-02T07:26:40.363Z,88.2
2023-01-02T07:28:40.380Z,88.2
2023-01-02T07:30:40.299Z,88.3
2023-01-02T07:32:40.310Z,87.7
2023-01-02T07:34:40.132Z,87.7
2023-01-02T07:36:40.116Z,87.7
2023-01-02T07:38:40.104Z,87.7
2023-01-02T07:40:40.069Z,88.3
2023-01-02T07:42:39.833Z,88.3
2023-01-02T07:44:39.861Z,88.3
2023-01-02T07:46:39.753Z,87.9
2023-01-02T07:48:39.912Z,87.8
2023-01-02T07:50:39.882Z,88.6
2023-01-02T07:52:41.696Z,87.7
2023-01-02T07:54:39.353Z,88.2
2023-01-02T07:56:39.349Z,88.2
2023-01-02T07:58:39.374Z,87.6
2023-01-02T08:00:39.276Z,87.6
2023-01-02T08:02:39.373Z,87.6
2023-01-02T08:04:39.111Z,87.6
2023-01-02T08:06:39.464Z,87.2
2023-01-02T08:08:39.945Z,87.1
2023-01-02T08:10:39.044Z,87.1
2023-01-02T08:12:39.036Z,86.4
2023-01-02T08:14:38.703Z,86.4
2023-01-02T08:16:38.713Z,86.5
2023-01-02T08:18:38.804Z,86.5
2023-01-02T08:20:38.648Z,86.5
2023-01-02T08:22:38.398Z,86.5
2023-01-02T08:24:38.272Z,86.5
2023-01-02T08:26:38.291Z,86.2
2023-01-02T08:28:39.869Z,85.8
2023-01-02T08:30:39.910Z,85.8
2023-01-02T08:32:38.765Z,85.8
2023-01-02T08:34:37.863Z,86.1
2023-01-02T08:36:37.821Z,86.1
2023-01-02T08:38:38.144Z,86.1
2023-01-02T08:40:37.897Z,86.1
2023-01-02T08:42:37.700Z,86.1
2023-01-02T08:44:37.586Z,86.1
2023-01-02T08:46:42.625Z,86.5
2023-01-02T08:48:37.380Z,86.5
2023-01-02T08:50:37.435Z,85.5
2023-01-02T08:52:37.331Z,85.5
2023-01-02T08:54:37.328Z,85.5
2023-01-02T08:56:37.097Z,85.6
2023-01-02T08:58:36.957Z,85.4
2023-01-02T09:00:36.781Z,85.4
2023-01-02T09:02:37.589Z,85.4
2023-01-02T09:04:36.765Z,85.4
2023-01-02T09:06:37.191Z,85.5
2023-01-02T09:08:36.603Z,86.3
2023-01-02T09:10:36.372Z,85.5
2023-01-02T09:12:36.362Z,84.8
2023-01-02T09:14:36.360Z,85.6
2023-01-02T09:16:37.157Z,85.9
2023-01-02T09:18:36.906Z,85.9
2023-01-02T09:20:40.310Z,85.9
2023-01-02T09:22:36.474Z,84.8
2023-01-02T09:24:35.758Z,84.8
2023-01-02T09:26:36.001Z,85.3
2023-01-02T09:28:36.271Z,85.3
2023-01-02T09:30:35.999Z,85.3
2023-01-02T09:32:35.504Z,85.3
2023-01-02T09:34:35.486Z,85.3
2023-01-02T09:36:35.698Z,85.4
2023-01-02T09:38:35.798Z,85.4
2023-01-02T09:40:38.508Z,85.4
2023-01-02T09:42:35.260Z,85.4
2023-01-02T09:44:38.977Z,85.4
2023-01-02T09:46:42.482Z,85
2023-01-02T09:48:36.023Z,84.7
2023-01-02T09:50:35.351Z,85.3
2023-01-02T09:52:37.768Z,84.6
2023-01-02T09:54:34.735Z,83.8
2023-01-02T09:56:39.758Z,84.3
2023-01-02T09:58:40.159Z,84.3
2023-01-02T10:00:36.912Z,84.3
2023-01-02T10:02:45.195Z,84.3
2023-01-02T10:04:52.484Z,84.3
2023-01-02T10:06:41.390Z,84.3
2023-01-02T10:08:45.406Z,84.3
2023-01-02T10:10:40.245Z,84.3
2023-01-02T10:12:41.908Z,84.3
2023-01-02T10:14:44.933Z,83.6
2023-01-02T10:16:40.571Z,83.8
2023-01-02T10:18:39.145Z,83.8
2023-01-02T10:20:39.308Z,83.8
2023-01-02T10:22:39.993Z,83.8
2023-01-02T10:24:41.437Z,83.8
2023-01-02T10:26:37.013Z,83.8
2023-01-02T10:28:43.401Z,83.8
2023-01-02T10:30:40.743Z,83.8
2023-01-02T10:32:34.928Z,83.8
2023-01-02T10:34:39.123Z,83.8
2023-01-02T10:36:39.178Z,84.1
2023-01-02T10:38:36.131Z,83.3
2023-01-02T10:40:33.410Z,83.8
2023-01-02T10:42:33.540Z,83.8
2023-01-02T10:44:34.945Z,83.2
2023-01-02T10:46:35.499Z,83.7
2023-01-02T10:48:36.389Z,83.7
2023-01-02T10:50:40.379Z,84.3
2023-01-02T10:52:35.492Z,83.8
2023-01-02T10:54:51.138Z,84.3
2023-01-02T10:56:35.635Z,84.6
2023-01-02T10:58:33.981Z,85.6
2023-01-02T11:00:35.055Z,83.8
2023-01-02T11:02:39.961Z,83.8
2023-01-02T11:04:32.376Z,83.8
2023-01-02T11:06:39.345Z,84.3
2023-01-02T11:08:38.024Z,84.9
2023-01-02T11:10:34.522Z,84.1
2023-01-02T11:12:45.619Z,84.8
2023-01-02T11:14:34.357Z,84.8
2023-01-02T11:16:38.410Z,84.8
2023-01-02T11:18:34.067Z,84.8
2023-01-02T11:20:34.988Z,84.8
2023-01-02T11:22:35.692Z,85.5
2023-01-02T11:24:31.742Z,84.6
2023-01-02T11:26:33.905Z,84.3
2023-01-02T11:28:34.147Z,84.3
2023-01-02T11:30:35.960Z,84.3
2023-01-02T11:32:37.547Z,84.3
2023-01-02T11:34:35.980Z,84.3
2023-01-02T11:36:31.058Z,84
2023-01-02T11:38:42.181Z,84
2023-01-02T11:40:31.930Z,83.4
2023-01-02T11:42:38.128Z,83.4
2023-01-02T11:44:33.866Z,83.4
2023-01-02T11:46:35.028Z,83.9
2023-01-02T11:48:30.697Z,83.9
2023-01-02T11:50:34.348Z,83.9
2023-01-02T11:52:39.642Z,83.9
2023-01-02T11:54:38.924Z,84.7
2023-01-02T11:56:33.816Z,84.1
2023-01-02T11:58:36.673Z,84.1
2023-01-02T12:00:34.590Z,84.1
2023-01-02T12:02:36.245Z,84.1
2023-01-02T12:04:30.137Z,84.1
2023-01-02T12:06:46.728Z,84
2023-01-02T12:08:44.534Z,84.7
2023-01-02T12:10:43.227Z,84.7
2023-01-02T12:12:43.956Z,84.7
2023-01-02T12:14:55.071Z,84.7
2023-01-02T12:16:39.127Z,84.4
2023-01-02T12:18:48.499Z,84.4
2023-01-02T12:20:42.381Z,84.4
2023-01-02T12:22:56.668Z,84.8
2023-01-02T12:24:44.147Z,84.8
2023-01-02T12:26:36.673Z,84.9
2023-01-02T12:28:47.378Z,84.9
2023-01-02T12:30:34.172Z,85.4
2023-01-02T12:33:01.063Z,85.4
2023-01-02T12:34:46.893Z,86
2023-01-02T12:36:47.790Z,85.2
2023-01-02T12:38:38.262Z,85.2
2023-01-02T12:40:39.751Z,85.2
2023-01-02T12:48:43.868Z,85.9
2023-01-02T12:50:49.434Z,85.9
2023-01-02T12:52:43.664Z,85.9
2023-01-02T12:56:37.781Z,86.1
2023-01-02T12:58:39.939Z,86.1
2023-01-02T13:00:43.125Z,86.1
2023-01-02T13:02:43.192Z,86.1
2023-01-02T13:04:32.932Z,86.1
2023-01-02T13:06:45.146Z,86
2023-01-02T13:08:31.611Z,86
2023-01-02T13:10:28.634Z,86
2023-01-02T13:12:29.692Z,86.5
2023-01-02T13:14:34.841Z,86.5
2023-01-02T13:16:26.783Z,85.9
2023-01-02T13:18:36.777Z,85.9
2023-01-02T13:20:35.290Z,85.9
2023-01-02T13:22:34.180Z,85.9
2023-01-02T13:24:26.573Z,86.5
2023-01-02T13:26:28.934Z,86.4
2023-01-02T13:28:25.859Z,86.4
2023-01-02T13:30:44.087Z,86
2023-01-02T13:32:28.065Z,86.3
2023-01-02T13:34:28.156Z,86.3
2023-01-02T13:36:27.971Z,85.9
2023-01-02T13:38:28.656Z,85.9
2023-01-02T13:40:28.720Z,85.9
2023-01-02T13:42:27.926Z,85.9
2023-01-02T13:44:32.459Z,86.5
2023-01-02T13:47:01.961Z,86.5
2023-01-02T13:48:31.280Z,86.5
2023-01-02T13:50:27.807Z,86.5
2023-01-02T13:52:24.354Z,86.5
2023-01-02T13:54:35.780Z,86.5
2023-01-02T13:56:25.848Z,86.5
2023-01-02T13:58:41.345Z,86.5
2023-01-02T14:00:34.180Z,86.5
2023-01-02T14:02:23.775Z,86.5
2023-01-02T14:04:30.786Z,86.6
2023-01-02T14:06:32.759Z,87.5
2023-01-02T14:08:24.216Z,87.5
2023-01-02T14:10:40.535Z,87.5
2023-01-02T14:12:23.022Z,87.5
2023-01-02T14:14:28.010Z,86.9
2023-01-02T14:16:44.138Z,86.9
2023-01-02T14:18:30.502Z,86.9
2023-01-02T14:20:25.679Z,87.1
2023-01-02T14:22:22.403Z,87.1
2023-01-02T14:24:30.219Z,87.1
2023-01-02T14:26:24.656Z,87.2
2023-01-02T14:28:24.693Z,87.2
2023-01-02T14:30:29.280Z,87.2
2023-01-02T14:32:26.169Z,87.2
2023-01-02T14:34:24.058Z,87.2
2023-01-02T14:36:33.931Z,86.8
2023-01-02T14:38:24.313Z,87.7
2023-01-02T14:40:35.429Z,87.7
2023-01-02T14:42:31.272Z,87.2
2023-01-02T14:44:21.356Z,87.2
2023-01-02T14:46:24.597Z,87.4
2023-01-02T14:48:28.888Z,87.4
2023-01-02T14:50:25.528Z,87.4
2023-01-02T14:52:27.325Z,87.4
2023-01-02T14:54:24.555Z,87.4
2023-01-02T14:56:23.853Z,87.9
2023-01-02T14:58:36.431Z,87.6
2023-01-02T15:00:26.979Z,87.6
2023-01-02T15:02:29.131Z,87.6
2023-01-02T15:04:26.528Z,87.6
2023-01-02T15:06:31.020Z,87.4
2023-01-02T15:08:29.341Z,87.4
2023-01-02T15:10:22.459Z,87.4
2023-01-02T15:12:23.157Z,88.1
2023-01-02T15:14:23.825Z,88.1
2023-01-02T15:16:22.696Z,87.8
2023-01-02T15:18:24.466Z,87.8
2023-01-02T15:20:23.216Z,87.8
2023-01-02T15:22:27.651Z,87.8
2023-01-02T15:24:21.548Z,87.4
2023-01-02T15:26:33.091Z,87.4
2023-01-02T15:28:25.455Z,87.9
2023-01-02T15:30:26.162Z,87.9
2023-01-02T15:32:20.947Z,87.9
2023-01-02T15:34:24.772Z,87.9
2023-01-02T15:36:26.745Z,88.4
2023-01-02T15:38:20.359Z,88.4
2023-01-02T15:40:24.948Z,88.7
2023-01-02T15:42:21.247Z,88
2023-01-02T15:44:21.828Z,88
2023-01-02T15:46:18.026Z,88
2023-01-02T15:48:20.024Z,88
2023-01-02T15:50:21.333Z,88.1
2023-01-02T15:52:21.631Z,89
2023-01-02T15:54:17.206Z,88.3
2023-01-02T15:56:31.564Z,88.4
2023-01-02T15:58:24.531Z,88.8
2023-01-02T16:00:32.792Z,88.8
2023-01-02T16:02:34.456Z,88.8
2023-01-02T16:04:24.569Z,88.8
2023-01-02T16:06:22.987Z,88.6
2023-01-02T16:08:20.145Z,88.6
2023-01-02T16:10:19.515Z,88.6
2023-01-02T16:12:20.645Z,89.4
2023-01-02T16:14:18.872Z,89.4
2023-01-02T16:16:17.636Z,88.9
2023-01-02T16:18:15.415Z,88.9
2023-01-02T16:20:18.346Z,88.9
2023-01-02T16:22:19.514Z,88.9
2023-01-02T16:24:19.512Z,88.9
2023-01-02T16:26:16.899Z,89.1
2023-01-02T16:28:35.330Z,89.5
2023-01-02T16:30:33.919Z,89.5
2023-01-02T16:32:24.708Z,89.5
2023-01-02T16:34:24.403Z,89.5
2023-01-02T16:36:20.811Z,89.8
2023-01-02T16:38:20.687Z,90.2
2023-01-02T16:41:01.025Z,89.6
2023-01-02T16:42:13.929Z,89.6
2023-01-02T16:44:15.760Z,89.6
2023-01-02T16:46:15.442Z,90.2
2023-01-02T16:48:16.491Z,90.2
2023-01-02T16:50:17.404Z,90.2
2023-01-02T16:52:13.238Z,89.6
2023-01-02T16:54:14.980Z,89.6
2023-01-02T16:56:14.592Z,90.2
2023-01-02T16:58:13.101Z,90.2
2023-01-02T17:00:14.105Z,90.2
2023-01-02T17:02:13.802Z,89.7
2023-01-02T17:04:13.469Z,89.7
2023-01-02T17:06:14.320Z,90.2
2023-01-02T17:08:12.273Z,90.2
2023-01-02T17:10:12.562Z,90.2
2023-01-02T17:12:13.112Z,90.2
2023-01-02T17:14:11.795Z,90.2
2023-01-02T17:16:11.664Z,90.2
2023-01-02T17:18:12.245Z,90.2
2023-01-02T17:20:13.527Z,90.2
2023-01-02T17:22:11.333Z,90.2
2023-01-02T17:24:11.093Z,90.2
2023-01-02T17:26:11.045Z,90.3
2023-01-02T17:28:11.329Z,90.3
2023-01-02T17:30:13.554Z,91.1
2023-01-02T17:32:11.221Z,90.6
2023-01-02T17:34:10.424Z,90.6
2023-01-02T17:36:10.456Z,91
2023-01-02T17:38:10.207Z,91
2023-01-02T17:40:11.983Z,91.6
2023-01-02T17:42:11.540Z,91.6
2023-01-02T17:44:09.848Z,91.6
2023-01-02T17:46:38.769Z,91.1
2023-01-02T17:52:20.258Z,91.1
2023-01-02T17:52:41.193Z,91.1
2023-01-02T17:54:41.164Z,91.1
2023-01-02T17:56:40.872Z,91.1
2023-01-02T17:58:41.269Z,91.7
2023-01-02T18:00:43.718Z,91.6
2023-01-02T18:02:41.553Z,91.6
2023-01-02T18:04:40.463Z,91.6
2023-01-02T18:06:40.691Z,91.6
2023-01-02T18:07:32.621Z,83.5
2023-01-02T18:18:25.940Z,91.5
2023-01-02T18:18:50.210Z,84.2
2023-01-02T18:19:36.525Z,92.3
2023-01-02T18:20:39.937Z,92.1
2023-01-02T18:22:46.106Z,92.5
2023-01-02T18:24:46.377Z,84.2
2023-01-02T18:25:15.949Z,92.5
2023-01-02T18:26:39.099Z,92.5
2023-01-02T18:28:42.807Z,92.5
2023-01-02T18:30:38.868Z,92.5
2023-01-02T18:32:41.264Z,92.4
2023-01-02T18:34:52.437Z,92.4
2023-01-02T18:36:39.588Z,92.4
2023-01-02T18:38:39.014Z,92.4
2023-01-02T18:40:39.295Z,92.5
2023-01-02T18:42:38.297Z,92.5
2023-01-02T18:44:41.144Z,92.5
2023-01-02T18:47:02.728Z,93.1
2023-01-02T18:48:38.959Z,93.1
2023-01-02T18:50:38.225Z,93.1
2023-01-02T18:52:39.693Z,92.8
2023-01-02T18:54:42.561Z,92.8
2023-01-02T18:56:37.205Z,92.8
2023-01-02T18:58:41.070Z,92.8
2023-01-02T19:00:39.155Z,93.2
2023-01-02T19:02:52.903Z,93.2
2023-01-02T19:04:37.669Z,93.2
2023-01-02T19:06:41.493Z,93.2
2023-01-02T19:08:37.459Z,93.2
2023-01-02T19:10:38.446Z,93.2
2023-01-02T19:12:42.525Z,93.5
2023-01-02T19:14:38.568Z,93.5
2023-01-02T19:16:35.772Z,93.5
2023-01-02T19:18:39.209Z,93.5
2023-01-02T19:20:35.858Z,93.5
2023-01-02T19:22:35.326Z,93.4
2023-01-02T19:24:36.500Z,93.4
2023-01-02T19:26:39.653Z,93.4
2023-01-02T19:28:35.832Z,93.4
2023-01-02T19:30:34.849Z,93.4
2023-01-02T19:32:35.783Z,93.2
2023-01-02T19:34:42.130Z,93.2
2023-01-02T19:36:36.785Z,93.8
2023-01-02T19:38:35.504Z,93.8
2023-01-02T19:40:33.966Z,93.8
2023-01-02T19:42:34.014Z,93.6
2023-01-02T19:44:34.136Z,93.6
2023-01-02T19:46:34.144Z,93.2
2023-01-02T19:48:33.468Z,93.2
2023-01-02T19:50:33.359Z,93.2
2023-01-02T19:52:33.378Z,92.9
2023-01-02T19:54:33.387Z,92.9
2023-01-02T19:56:32.686Z,92.9
2023-01-02T19:58:32.615Z,92.9
2023-01-02T20:00:32.694Z,92.9
2023-01-02T20:02:32.908Z,93.1
2023-01-02T20:04:32.105Z,93.1
2023-01-02T20:06:31.956Z,93.1
2023-01-02T20:08:32.368Z,93.1
2023-01-02T20:10:31.749Z,93.1
2023-01-02T20:12:31.583Z,93.1
2023-01-02T20:14:31.658Z,93.1
2023-01-02T20:16:31.245Z,93.1
2023-01-02T20:18:31.637Z,93.1
2023-01-02T20:20:30.980Z,93.1
2023-01-02T20:22:31.299Z,93
2023-01-02T20:24:31.212Z,93
2023-01-02T20:26:30.617Z,93
2023-01-02T20:28:30.478Z,93
2023-01-02T20:30:30.341Z,93
2023-01-02T20:32:31.449Z,93.1
2023-01-02T20:34:30.093Z,93.1
2023-01-02T20:36:30.542Z,93.1
2023-01-02T20:38:30.463Z,93.1
2023-01-02T20:40:29.654Z,93.1
2023-01-02T20:42:29.590Z,93
2023-01-02T20:44:29.381Z,93.1
2023-01-02T20:46:29.325Z,93.1
2023-01-02T20:48:29.133Z,93.1
2023-01-02T20:50:29.149Z,92.9
2023-01-02T20:52:29.934Z,92.9
2023-01-02T20:54:28.760Z,92.9
2023-01-02T20:56:28.645Z,92.4
2023-01-02T20:58:28.558Z,93
2023-01-02T21:00:28.422Z,93
2023-01-02T21:02:28.318Z,92.9
2023-01-02T21:04:34.133Z,92.9
2023-01-02T21:06:27.999Z,92.9
2023-01-02T21:08:28.845Z,92.9
2023-01-02T21:10:28.158Z,92.9
2023-01-02T21:12:27.638Z,93.4
2023-01-02T21:14:30.036Z,93.4
2023-01-02T21:16:27.762Z,93.4
2023-01-02T21:18:28.966Z,93.1
2023-01-02T21:20:27.400Z,93.8
2023-01-02T21:22:26.899Z,93.4
2023-01-02T21:24:26.875Z,93.1
2023-01-02T21:26:26.823Z,93.1
2023-01-02T21:28:26.771Z,93.1
2023-01-02T21:30:26.889Z,93.1
2023-01-02T21:32:26.297Z,93.5
2023-01-02T21:34:26.181Z,93.8
2023-01-02T21:36:26.117Z,93.8
2023-01-02T21:38:27.139Z,93.3
2023-01-02T21:40:25.885Z,93.3
2023-01-02T21:42:25.737Z,93.7
2023-01-02T21:44:25.635Z,93.7
2023-01-02T21:46:25.524Z,93.7
2023-01-02T21:48:25.238Z,93.7
2023-01-02T21:50:26.063Z,93.9
2023-01-02T21:52:25.153Z,93.9
2023-01-02T21:54:24.905Z,93.9
2023-01-02T21:56:24.715Z,93.9
2023-01-02T21:58:24.618Z,93.9
2023-01-02T22:00:25.860Z,93.9
2023-01-02T22:02:32.914Z,93.7
2023-01-02T22:04:24.075Z,94.4
2023-01-02T22:06:24.062Z,94.4
2023-01-02T22:08:23.906Z,94.4
2023-01-02T22:10:23.664Z,94.4
2023-01-02T22:12:23.537Z,95.1
2023-01-02T22:14:25.903Z,94.6
2023-01-02T22:16:23.402Z,94.6
2023-01-02T22:18:23.159Z,94.6
2023-01-02T22:20:23.027Z,94.6
2023-01-02T22:22:22.851Z,94.5
2023-01-02T22:24:24.653Z,94.5
2023-01-02T22:26:22.726Z,94.5
2023-01-02T22:28:22.896Z,93.9
2023-01-02T22:30:29.386Z,94.5
2023-01-02T22:32:22.431Z,94.2
2023-01-02T22:34:24.762Z,94.2
2023-01-02T22:36:23.962Z,94.2
2023-01-02T22:38:21.960Z,94.2
2023-01-02T22:40:21.666Z,94.2
2023-01-02T22:42:58.481Z,95
2023-01-02T22:44:24.612Z,95
2023-01-02T22:46:24.707Z,94.5
2023-01-02T22:48:23.056Z,95.1
2023-01-02T22:50:27.906Z,94.2
2023-01-02T22:52:21.992Z,94.2
2023-01-02T22:54:23.048Z,94.8
2023-01-02T22:56:22.271Z,94.8
2023-01-02T22:58:21.310Z,94.8
2023-01-02T23:00:21.520Z,94.8
2023-01-02T23:02:21.368Z,94.7
2023-01-02T23:04:23.575Z,94.7
2023-01-02T23:06:22.225Z,94.7
2023-01-02T23:08:19.616Z,94.7
2023-01-02T23:10:19.492Z,94.7
2023-01-02T23:12:19.376Z,95.2
2023-01-02T23:14:19.200Z,95.2
2023-01-02T23:16:19.018Z,95.2
2023-01-02T23:18:18.806Z,95.2
2023-01-02T23:20:20.260Z,95.2
2023-01-02T23:22:18.641Z,95
2023-01-02T23:24:21.004Z,95
2023-01-02T23:26:19.174Z,95
2023-01-02T23:28:39.428Z,95
2023-01-02T23:30:18.926Z,94.9
2023-01-02T23:32:17.954Z,94.9
2023-01-02T23:34:20.321Z,94.9
2023-01-02T23:36:17.793Z,95.4
2023-01-02T23:38:17.747Z,94.8
2023-01-02T23:40:17.356Z,94.8
2023-01-02T23:42:17.092Z,95.4
2023-01-02T23:44:17.781Z,94.8
2023-01-02T23:46:17.111Z,95.5
2023-01-02T23:48:16.731Z,94.8
2023-01-02T23:50:16.660Z,94.8
2023-01-02T23:52:16.404Z,95
2023-01-02T23:54:17.272Z,95
2023-01-02T23:56:18.435Z,95
2023-01-02T23:58:16.094Z,95
